createdAt,value
2023-04-18T00:02:07.180Z,103707.88
2023-04-18T00:04:36.779Z,103706.13
2023-04-18T00:07:04.810Z,103707.75
2023-04-18T00:09:32.719Z,103700.81
2023-04-18T00:12:01.643Z,103704.25
2023-04-18T00:14:30.175Z,103702.53
2023-04-18T00:16:58.070Z,103706.00
2023-04-18T00:19:26.199Z,103712.03
2023-04-18T00:21:55.981Z,103710.28
2023-04-18T00:24:23.852Z,103717.13
2023-04-18T00:26:51.738Z,103726.56
2023-04-18T00:29:19.668Z,103717.94
2023-04-18T00:31:47.551Z,103718.75
2023-04-18T00:34:15.642Z,103718.72
2023-04-18T00:36:43.584Z,103721.22
2023-04-18T00:39:12.855Z,103722.09
2023-04-18T00:41:40.757Z,103721.22
2023-04-18T00:44:08.633Z,103720.31
2023-04-18T00:46:36.513Z,103721.19
2023-04-18T00:49:04.600Z,103724.66
2023-04-18T00:51:32.595Z,103720.31
2023-04-18T00:54:00.614Z,103732.38
2023-04-18T00:56:30.692Z,103729.81
2023-04-18T00:58:59.510Z,103728.09
2023-04-18T01:01:27.473Z,103730.69
2023-04-18T01:03:55.521Z,103733.28
2023-04-18T01:06:23.947Z,103732.38
2023-04-18T01:08:52.007Z,103738.44
2023-04-18T01:11:20.076Z,103733.28
2023-04-18T01:14:01.611Z,103736.72
2023-04-18T01:16:30.204Z,103737.63
2023-04-18T01:18:58.165Z,103733.34
2023-04-18T01:21:26.902Z,103735.91
2023-04-18T01:23:55.001Z,103730.72
2023-04-18T01:26:24.496Z,103728.97
2023-04-18T01:28:52.356Z,103730.66
2023-04-18T01:31:20.244Z,103735.81
2023-04-18T01:33:48.244Z,103734.03
2023-04-18T01:36:16.166Z,103740.88
2023-04-18T01:38:44.050Z,103739.91
2023-04-18T01:41:11.953Z,103740.75
2023-04-18T01:43:41.178Z,103739.91
2023-04-18T01:46:09.157Z,103744.22
2023-04-18T01:48:36.974Z,103739.88
2023-04-18T01:51:05.228Z,103747.66
2023-04-18T01:53:33.095Z,103740.81
2023-04-18T01:56:01.024Z,103748.56
2023-04-18T01:58:30.377Z,103744.28
2023-04-18T02:00:59.699Z,103741.75
2023-04-18T02:03:27.712Z,103748.66
2023-04-18T02:05:55.708Z,103739.22
2023-04-18T02:08:23.639Z,103747.84
2023-04-18T02:10:51.650Z,103741.00
2023-04-18T02:13:19.511Z,103747.91
2023-04-18T02:15:47.437Z,103736.69
2023-04-18T02:18:17.446Z,103742.78
2023-04-18T02:20:45.691Z,103750.56
2023-04-18T02:23:13.569Z,103752.25
2023-04-18T02:25:41.509Z,103747.06
2023-04-18T02:28:09.442Z,103748.81
2023-04-18T02:30:37.314Z,103749.66
2023-04-18T02:33:05.415Z,103753.13
2023-04-18T02:35:34.691Z,103752.25
2023-04-18T02:38:02.597Z,103759.22
2023-04-18T02:40:30.474Z,103750.59
2023-04-18T02:42:58.390Z,103744.56
2023-04-18T02:45:26.292Z,103749.72
2023-04-18T02:47:56.476Z,103746.31
2023-04-18T02:50:25.294Z,103756.63
2023-04-18T02:52:54.602Z,103751.47
2023-04-18T02:55:23.027Z,103760.06
2023-04-18T02:57:51.033Z,103760.03
2023-04-18T03:00:19.732Z,103767.81
2023-04-18T03:02:47.692Z,103760.94
2023-04-18T03:05:15.669Z,103756.66
2023-04-18T03:07:43.520Z,103757.50
2023-04-18T03:10:13.036Z,103751.50
2023-04-18T03:12:40.904Z,103755.78
2023-04-18T03:15:09.590Z,103758.38
2023-04-18T03:17:37.787Z,103767.00
2023-04-18T03:20:06.618Z,103771.31
2023-04-18T03:22:34.550Z,103773.88
2023-04-18T03:25:02.442Z,103770.44
2023-04-18T03:27:31.746Z,103768.69
2023-04-18T03:29:59.637Z,103773.00
2023-04-18T03:32:27.493Z,103773.03
2023-04-18T03:34:55.590Z,103773.88
2023-04-18T03:37:23.532Z,103781.63
2023-04-18T03:39:51.478Z,103787.69
2023-04-18T03:42:19.384Z,103785.97
2023-04-18T03:44:48.709Z,103785.97
2023-04-18T03:47:17.211Z,103787.72
2023-04-18T03:49:45.175Z,103789.47
2023-04-18T03:52:13.279Z,103795.53
2023-04-18T03:54:41.158Z,103793.81
2023-04-18T03:57:09.097Z,103792.97
2023-04-18T03:59:37.027Z,103795.59
2023-04-18T04:02:06.415Z,103800.78
2023-04-18T04:04:34.540Z,103800.78
2023-04-18T04:07:02.713Z,103799.13
2023-04-18T04:09:30.590Z,103800.06
2023-04-18T04:11:58.500Z,103794.06
2023-04-18T04:14:26.495Z,103807.00
2023-04-18T04:16:54.401Z,103807.03
2023-04-18T04:19:23.691Z,103812.19
2023-04-18T04:21:51.811Z,103813.13
2023-04-18T04:24:20.504Z,103819.19
2023-04-18T04:26:48.788Z,103815.84
2023-04-18T04:29:16.896Z,103826.22
2023-04-18T04:31:45.047Z,103825.69
2023-04-18T04:34:13.192Z,103823.44
2023-04-18T04:36:43.123Z,103823.28
2023-04-18T04:39:11.788Z,103819.63
2023-04-18T04:41:40.508Z,103818.47
2023-04-18T04:44:09.608Z,103825.25
2023-04-18T04:46:39.540Z,103818.22
2023-04-18T04:49:08.037Z,103814.78
2023-04-18T04:51:35.991Z,103826.81
2023-04-18T04:54:05.517Z,103822.41
2023-04-18T04:56:33.656Z,103825.88
2023-04-18T04:59:01.965Z,103828.47
2023-04-18T05:01:29.919Z,103835.38
2023-04-18T05:03:57.854Z,103832.81
2023-04-18T05:06:26.612Z,103829.41
2023-04-18T05:08:54.917Z,103829.41
2023-04-18T05:11:24.575Z,103837.22
2023-04-18T05:13:52.487Z,103838.09
2023-04-18T05:16:20.412Z,103834.63
2023-04-18T05:18:48.290Z,103839.84
2023-04-18T05:21:16.286Z,103846.78
2023-04-18T05:23:44.137Z,103838.13
2023-04-18T05:26:12.059Z,103839.88
2023-04-18T05:28:41.532Z,103842.47
2023-04-18T05:31:09.430Z,103848.53
2023-04-18T05:33:37.383Z,103839.00
2023-04-18T05:36:06.695Z,103841.59
2023-04-18T05:38:34.594Z,103850.25
2023-04-18T05:41:03.136Z,103849.22
2023-04-18T05:43:30.975Z,103844.31
2023-04-18T05:46:00.353Z,103851.06
2023-04-18T05:48:28.488Z,103848.34
2023-04-18T05:50:56.423Z,103854.22
2023-04-18T05:53:24.632Z,103848.97
2023-04-18T05:55:52.612Z,103856.75
2023-04-18T05:58:20.530Z,103863.22
2023-04-18T06:00:48.432Z,103857.97
2023-04-18T06:03:18.008Z,103858.78
2023-04-18T06:05:46.173Z,103863.22
2023-04-18T06:08:14.213Z,103856.53
2023-04-18T06:10:42.105Z,103861.72
2023-04-18T06:13:10.012Z,103865.34
2023-04-18T06:15:38.012Z,103860.72
2023-04-18T06:18:06.047Z,103860.16
2023-04-18T06:20:35.362Z,103866.97
2023-04-18T06:23:06.464Z,103857.44
2023-04-18T06:25:34.469Z,103857.91
2023-04-18T06:28:02.365Z,103859.53
2023-04-18T06:30:30.221Z,103858.44
2023-04-18T06:32:58.073Z,103856.44
2023-04-18T06:35:26.712Z,103867.38
2023-04-18T06:37:56.192Z,103855.22
2023-04-18T06:40:24.227Z,103863.66
2023-04-18T06:42:52.194Z,103859.09
2023-04-18T06:45:20.537Z,103856.84
2023-04-18T06:47:48.787Z,103862.84
2023-04-18T06:50:18.083Z,103863.78
2023-04-18T06:52:46.066Z,103858.91
2023-04-18T06:55:15.744Z,103860.41
2023-04-18T06:57:44.598Z,103862.88
2023-04-18T07:00:13.166Z,103857.91
2023-04-18T07:02:41.667Z,103853.41
2023-04-18T07:05:10.449Z,103870.63
2023-04-18T07:07:38.464Z,103862.00
2023-04-18T07:10:09.606Z,103863.69
2023-04-18T07:12:39.095Z,103875.88
2023-04-18T07:15:08.391Z,103868.75
2023-04-18T07:17:37.063Z,103870.34
2023-04-18T07:20:05.772Z,103865.69
2023-04-18T07:22:33.585Z,103873.31
2023-04-18T07:25:01.440Z,103870.63
2023-04-18T07:27:29.428Z,103870.63
2023-04-18T07:29:58.936Z,103873.09
2023-04-18T07:32:26.816Z,103869.44
2023-04-18T07:34:54.698Z,103869.44
2023-04-18T07:37:22.664Z,103878.03
2023-04-18T07:39:51.381Z,103873.69
2023-04-18T07:42:19.529Z,103874.44
2023-04-18T07:44:47.982Z,103873.56
2023-04-18T07:47:22.362Z,103874.31
2023-04-18T07:49:50.941Z,103874.16
2023-04-18T07:52:18.859Z,103878.38
2023-04-18T07:54:46.900Z,103868.78
2023-04-18T07:57:14.804Z,103875.72
2023-04-18T07:59:42.760Z,103867.78
2023-04-18T08:02:10.896Z,103868.34
2023-04-18T08:04:40.602Z,103864.53
2023-04-18T08:07:08.636Z,103869.06
2023-04-18T08:09:36.576Z,103861.84
2023-04-18T08:12:04.679Z,103868.50
2023-04-18T08:14:32.774Z,103869.38
2023-04-18T08:17:00.672Z,103862.16
2023-04-18T08:19:28.695Z,103870.63
2023-04-18T08:22:08.938Z,103868.91
2023-04-18T08:24:36.940Z,103867.06
2023-04-18T08:27:04.860Z,103857.97
2023-04-18T08:29:32.939Z,103857.56
2023-04-18T08:32:00.988Z,103861.13
2023-04-18T08:34:29.397Z,103862.00
2023-04-18T08:36:58.710Z,103868.84
2023-04-18T08:39:26.761Z,103861.97
2023-04-18T08:41:59.521Z,103857.41
2023-04-18T08:44:28.871Z,103864.09
2023-04-18T08:46:57.570Z,103869.69
2023-04-18T08:49:26.121Z,103857.34
2023-04-18T08:51:54.140Z,103867.09
2023-04-18T08:54:25.029Z,103873.00
2023-04-18T08:59:06.674Z,103866.69
2023-04-18T09:01:51.623Z,103863.09
2023-04-18T09:04:35.267Z,103877.72
2023-04-18T09:07:04.331Z,103864.25
2023-04-18T09:09:46.569Z,103864.91
2023-04-18T09:12:18.181Z,103862.00
2023-04-18T09:14:48.523Z,103870.25
2023-04-18T09:17:31.600Z,103861.94
2023-04-18T09:20:00.361Z,103860.28
2023-04-18T09:22:46.249Z,103854.16
2023-04-18T09:25:26.100Z,103855.84
2023-04-18T09:27:54.261Z,103850.16
2023-04-18T09:30:34.144Z,103856.44
2023-04-18T09:33:05.991Z,103841.72
2023-04-18T09:35:34.271Z,103838.22
2023-04-18T09:38:02.194Z,103837.97
2023-04-18T09:40:30.384Z,103837.03
2023-04-18T09:42:58.291Z,103833.56
2023-04-18T09:45:26.880Z,103839.00
2023-04-18T09:47:56.305Z,103825.53
2023-04-18T09:50:24.254Z,103839.00
2023-04-18T09:52:52.205Z,103829.47
2023-04-18T09:55:20.674Z,103830.88
2023-04-18T09:57:49.967Z,103832.25
2023-04-18T10:00:25.381Z,103836.56
2023-04-18T10:02:58.268Z,103827.44
2023-04-18T10:05:28.501Z,103819.25
2023-04-18T10:07:56.560Z,103837.16
2023-04-18T10:10:25.356Z,103827.81
2023-04-18T10:12:55.285Z,103830.78
2023-04-18T10:15:26.406Z,103830.53
2023-04-18T10:20:29.135Z,103828.94
2023-04-18T10:22:58.268Z,103809.78
2023-04-18T10:25:48.612Z,103819.84
2023-04-18T10:28:16.500Z,103817.69
2023-04-18T10:31:02.966Z,103822.00
2023-04-18T10:33:34.341Z,103820.16
2023-04-18T10:36:06.792Z,103833.22
2023-04-18T10:38:35.797Z,103822.97
2023-04-18T10:41:18.253Z,103816.13
2023-04-18T10:44:28.795Z,103812.16
2023-04-18T10:47:14.758Z,103804.47
2023-04-18T10:49:54.765Z,103809.91
2023-04-18T10:52:24.432Z,103806.16
2023-04-18T10:54:57.075Z,103811.06
2023-04-18T10:57:38.183Z,103820.59
2023-04-18T11:00:09.417Z,103825.47
2023-04-18T11:02:37.442Z,103814.63
2023-04-18T11:05:06.593Z,103812.91
2023-04-18T11:07:37.242Z,103819.66
2023-04-18T11:10:05.893Z,103815.50
2023-04-18T11:12:36.446Z,103811.19
2023-04-18T11:15:11.727Z,103806.81
2023-04-18T11:17:41.212Z,103809.88
2023-04-18T11:20:11.523Z,103817.69
2023-04-18T11:22:48.481Z,103827.28
2023-04-18T11:25:17.028Z,103816.81
2023-04-18T11:27:45.940Z,103819.31
2023-04-18T11:30:15.799Z,103822.78
2023-04-18T11:32:43.878Z,103824.00
2023-04-18T11:35:13.451Z,103816.03
2023-04-18T11:37:42.995Z,103824.06
2023-04-18T11:40:13.935Z,103822.63
2023-04-18T11:42:42.722Z,103814.66
2023-04-18T11:45:12.726Z,103814.13
2023-04-18T11:47:41.952Z,103814.28
2023-04-18T11:50:11.978Z,103812.47
2023-04-18T11:52:42.415Z,103810.59
2023-04-18T11:55:17.755Z,103813.75
2023-04-18T11:57:52.467Z,103804.44
2023-04-18T12:00:22.227Z,103830.13
2023-04-18T12:02:51.835Z,103822.22
2023-04-18T12:05:27.342Z,103818.28
2023-04-18T12:07:55.854Z,103815.56
2023-04-18T12:10:30.652Z,103813.53
2023-04-18T12:12:59.723Z,103816.34
2023-04-18T12:15:29.222Z,103826.53
2023-04-18T12:18:05.510Z,103821.16
2023-04-18T12:20:38.151Z,103811.72
2023-04-18T12:23:06.891Z,103818.78
2023-04-18T12:25:36.538Z,103825.81
2023-04-18T12:28:14.419Z,103824.19
2023-04-18T12:30:43.378Z,103819.97
2023-04-18T12:33:11.321Z,103821.91
2023-04-18T12:35:39.341Z,103811.66
2023-04-18T12:38:07.358Z,103820.44
2023-04-18T12:40:39.517Z,103810.94
2023-04-18T12:43:07.926Z,103818.69
2023-04-18T12:45:35.804Z,103812.47
2023-04-18T12:48:03.836Z,103818.91
2023-04-18T12:50:31.815Z,103827.06
2023-04-18T12:53:01.849Z,103815.59
2023-04-18T12:55:30.220Z,103811.81
2023-04-18T12:57:59.584Z,103841.03
2023-04-18T13:00:29.104Z,103827.53
2023-04-18T13:02:57.391Z,103814.78
2023-04-18T13:05:29.935Z,103818.09
2023-04-18T13:08:15.360Z,103818.53
2023-04-18T13:10:44.706Z,103814.97
2023-04-18T13:13:14.256Z,103817.22
2023-04-18T13:15:42.590Z,103825.94
2023-04-18T13:18:10.635Z,103826.03
2023-04-18T13:20:40.770Z,103822.66
2023-04-18T13:23:08.648Z,103821.97
2023-04-18T13:25:36.567Z,103828.28
2023-04-18T13:28:04.508Z,103830.03
2023-04-18T13:30:35.719Z,103824.19
2023-04-18T13:33:03.777Z,103835.94
2023-04-18T13:35:31.747Z,103825.16
2023-04-18T13:37:59.943Z,103819.03
2023-04-18T13:40:27.799Z,103825.16
2023-04-18T13:42:55.849Z,103821.22
2023-04-18T13:45:23.762Z,103831.97
2023-04-18T13:47:53.180Z,103823.03
2023-04-18T13:50:21.254Z,103826.38
2023-04-18T13:52:49.411Z,103814.56
2023-04-18T13:55:17.934Z,103827.47
2023-04-18T13:57:46.590Z,103833.00
2023-04-18T14:00:17.047Z,103815.00
2023-04-18T14:02:45.006Z,103814.84
2023-04-18T14:05:14.679Z,103827.53
2023-04-18T14:07:42.625Z,103829.41
2023-04-18T14:10:11.379Z,103824.91
2023-04-18T14:12:39.992Z,103833.81
2023-04-18T14:15:09.271Z,103833.06
2023-04-18T14:17:37.097Z,103824.19
2023-04-18T14:20:06.027Z,103827.94
2023-04-18T14:22:35.754Z,103834.34
2023-04-18T14:25:03.708Z,103831.31
2023-04-18T14:27:31.630Z,103827.53
2023-04-18T14:29:59.852Z,103837.09
2023-04-18T14:32:27.862Z,103833.72
2023-04-18T14:34:55.735Z,103823.06
2023-04-18T14:37:23.647Z,103838.22
2023-04-18T14:39:52.916Z,103821.75
2023-04-18T14:42:20.925Z,103826.09
2023-04-18T14:44:48.827Z,103827.13
2023-04-18T14:47:16.952Z,103841.88
2023-04-18T14:49:44.866Z,103838.50
2023-04-18T14:52:12.728Z,103839.78
2023-04-18T14:54:40.644Z,103833.75
2023-04-18T14:57:10.279Z,103850.63
2023-04-18T14:59:38.482Z,103832.34
2023-04-18T15:02:06.416Z,103817.31
2023-04-18T15:04:34.669Z,103827.03
2023-04-18T15:07:02.705Z,103827.28
2023-04-18T15:09:30.788Z,103827.28
2023-04-18T15:12:00.230Z,103826.63
2023-04-18T15:14:31.154Z,103831.94
2023-04-18T15:17:00.956Z,103824.66
2023-04-18T15:19:30.471Z,103828.22
2023-04-18T15:21:58.588Z,103833.88
2023-04-18T15:24:26.582Z,103833.97
2023-04-18T15:26:54.512Z,103837.69
2023-04-18T15:29:22.439Z,103825.94
2023-04-18T15:31:52.064Z,103835.69
2023-04-18T15:34:20.020Z,103830.94
2023-04-18T15:36:48.921Z,103833.41
2023-04-18T15:39:20.332Z,103836.19
2023-04-18T15:41:48.378Z,103843.41
2023-04-18T15:44:16.200Z,103836.69
2023-04-18T15:46:44.025Z,103845.63
2023-04-18T15:49:13.325Z,103845.78
2023-04-18T15:51:41.375Z,103843.41
2023-04-18T15:54:09.370Z,103841.75
2023-04-18T15:56:37.916Z,103840.19
2023-04-18T15:59:07.003Z,103838.63
2023-04-18T16:01:35.808Z,103845.75
2023-04-18T16:04:04.055Z,103850.19
2023-04-18T16:06:33.675Z,103849.44
2023-04-18T16:09:01.941Z,103842.63
2023-04-18T16:11:29.853Z,103852.34
2023-04-18T16:13:57.754Z,103859.56
2023-04-18T16:16:26.601Z,103852.72
2023-04-18T16:18:54.582Z,103850.31
2023-04-18T16:21:22.404Z,103851.19
2023-04-18T16:23:51.648Z,103858.31
2023-04-18T16:26:19.509Z,103855.03
2023-04-18T16:28:48.591Z,103862.03
2023-04-18T16:31:16.813Z,103858.69
2023-04-18T16:33:45.375Z,103864.81
2023-04-18T16:36:13.388Z,103859.63
2023-04-18T16:38:41.285Z,103858.03
2023-04-18T16:41:10.901Z,103867.84
2023-04-18T16:43:38.776Z,103861.72
2023-04-18T16:46:06.926Z,103864.41
2023-04-18T16:48:37.762Z,103865.31
2023-04-18T16:51:06.661Z,103865.50
2023-04-18T16:53:34.479Z,103875.25
2023-04-18T16:56:03.261Z,103871.13
2023-04-18T16:58:32.747Z,103874.69
2023-04-18T17:01:02.699Z,103876.59
2023-04-18T17:03:30.881Z,103877.59
2023-04-18T17:05:58.787Z,103882.75
2023-04-18T17:08:28.615Z,103881.19
2023-04-18T17:10:56.643Z,103885.75
2023-04-18T17:13:26.902Z,103885.88
2023-04-18T17:15:56.203Z,103876.53
2023-04-18T17:18:24.609Z,103884.50
2023-04-18T17:20:52.629Z,103888.94
2023-04-18T17:23:21.821Z,103883.88
2023-04-18T17:25:49.906Z,103878.72
2023-04-18T17:28:17.805Z,103879.78
2023-04-18T17:30:45.717Z,103879.91
2023-04-18T17:33:14.981Z,103874.69
2023-04-18T17:35:43.001Z,103883.56
2023-04-18T17:38:11.563Z,103878.50
2023-04-18T17:40:39.619Z,103881.28
2023-04-18T17:43:07.549Z,103871.78
2023-04-18T17:45:35.559Z,103871.78
2023-04-18T17:48:03.595Z,103873.69
2023-04-18T17:50:36.905Z,103874.00
2023-04-18T17:53:05.126Z,103877.66
2023-04-18T17:55:32.988Z,103882.06
2023-04-18T17:58:00.874Z,103883.94
2023-04-18T18:00:29.035Z,103877.97
2023-04-18T18:02:57.285Z,103878.13
2023-04-18T18:05:25.945Z,103879.22
2023-04-18T18:07:57.585Z,103887.19
2023-04-18T18:10:26.011Z,103889.91
2023-04-18T18:12:53.921Z,103879.50
2023-04-18T18:15:22.050Z,103884.81
2023-04-18T18:17:50.720Z,103875.34
2023-04-18T18:20:19.552Z,103883.38
2023-04-18T18:22:47.720Z,103887.81
2023-04-18T18:25:17.029Z,103887.91
2023-04-18T18:27:45.010Z,103889.75
2023-04-18T18:30:13.315Z,103889.22
2023-04-18T18:32:41.185Z,103892.06
2023-04-18T18:35:09.895Z,103898.28
2023-04-18T18:37:37.756Z,103894.00
2023-04-18T18:40:07.440Z,103902.78
2023-04-18T18:42:36.803Z,103906.34
2023-04-18T18:45:05.284Z,103907.28
2023-04-18T18:47:34.297Z,103895.19
2023-04-18T18:50:02.510Z,103902.19
2023-04-18T18:52:31.042Z,103899.66
2023-04-18T18:55:01.030Z,103906.75
2023-04-18T18:57:28.980Z,103903.34
2023-04-18T18:59:58.236Z,103906.91
2023-04-18T19:02:26.302Z,103904.34
2023-04-18T19:04:54.485Z,103903.50
2023-04-18T19:07:22.537Z,103907.06
2023-04-18T19:09:50.492Z,103904.50
2023-04-18T19:12:18.425Z,103906.31
2023-04-18T19:14:46.896Z,103903.78
2023-04-18T19:17:17.667Z,103909.06
2023-04-18T19:19:45.539Z,103908.25
2023-04-18T19:22:13.423Z,103905.69
2023-04-18T19:24:41.306Z,103916.16
2023-04-18T19:27:09.205Z,103910.13
2023-04-18T19:29:37.315Z,103907.56
2023-04-18T19:32:06.342Z,103911.09
2023-04-18T19:34:35.619Z,103910.25
2023-04-18T19:37:03.774Z,103914.66
2023-04-18T19:39:31.729Z,103911.19
2023-04-18T19:41:59.622Z,103912.97
2023-04-18T19:44:27.498Z,103907.78
2023-04-18T19:46:55.477Z,103915.66
2023-04-18T19:49:23.518Z,103914.84
2023-04-18T19:51:53.321Z,103911.41
2023-04-18T19:54:22.127Z,103910.53
2023-04-18T19:56:50.385Z,103916.59
2023-04-18T19:59:18.391Z,103911.44
2023-04-18T20:01:46.364Z,103914.94
2023-04-18T20:04:14.423Z,103914.06
2023-04-18T20:06:42.666Z,103914.06
2023-04-18T20:09:16.673Z,103912.38
2023-04-18T20:11:44.979Z,103913.28
2023-04-18T20:14:12.973Z,103909.81
2023-04-18T20:16:42.733Z,103915.88
2023-04-18T20:19:12.701Z,103907.22
2023-04-18T20:21:41.124Z,103909.84
2023-04-18T20:24:10.130Z,103908.16
2023-04-18T20:26:39.518Z,103905.56
2023-04-18T20:29:07.510Z,103908.22
2023-04-18T20:31:36.268Z,103905.63
2023-04-18T20:34:04.142Z,103906.53
2023-04-18T20:36:34.582Z,103905.66
2023-04-18T20:39:03.485Z,103917.81
2023-04-18T20:41:32.457Z,103910.88
2023-04-18T20:44:05.274Z,103910.88
2023-04-18T20:46:33.415Z,103910.00
2023-04-18T20:49:01.388Z,103910.00
2023-04-18T20:51:29.871Z,103912.63
2023-04-18T20:53:57.918Z,103910.88
2023-04-18T20:56:26.228Z,103920.41
2023-04-18T20:58:54.159Z,103915.22
2023-04-18T21:01:23.711Z,103920.41
2023-04-18T21:03:51.820Z,103917.81
2023-04-18T21:06:22.103Z,103919.53
2023-04-18T21:08:50.703Z,103914.34
2023-04-18T21:11:18.704Z,103921.28
2023-04-18T21:13:46.609Z,103923.88
2023-04-18T21:16:14.778Z,103921.28
2023-04-18T21:18:44.291Z,103918.66
2023-04-18T21:21:13.771Z,103922.97
2023-04-18T21:23:44.789Z,103922.13
2023-04-18T21:26:14.038Z,103916.06
2023-04-18T21:28:56.306Z,103916.06
2023-04-18T21:31:24.677Z,103920.38
2023-04-18T21:33:57.928Z,103927.31
2023-04-18T21:36:30.680Z,103920.34
2023-04-18T21:39:00.524Z,103922.94
2023-04-18T21:41:30.958Z,103918.59
2023-04-18T21:44:01.305Z,103923.78
2023-04-18T21:46:29.342Z,103931.56
2023-04-18T21:48:58.581Z,103916.84
2023-04-18T21:51:27.233Z,103921.16
2023-04-18T21:53:55.086Z,103914.25
2023-04-18T21:56:22.957Z,103919.41
2023-04-18T21:58:50.902Z,103921.13
2023-04-18T22:01:18.768Z,103922.84
2023-04-18T22:03:46.987Z,103919.38
2023-04-18T22:06:16.936Z,103931.44
2023-04-18T22:08:44.841Z,103919.34
2023-04-18T22:11:13.617Z,103917.63
2023-04-18T22:13:44.943Z,103917.59
2023-04-18T22:16:13.076Z,103919.28
2023-04-18T22:18:41.023Z,103920.13
2023-04-18T22:21:09.565Z,103925.31
2023-04-18T22:23:38.775Z,103916.63
2023-04-18T22:26:06.837Z,103928.72
2023-04-18T22:28:34.798Z,103919.16
2023-04-18T22:31:02.822Z,103919.16
2023-04-18T22:33:30.967Z,103920.00
2023-04-18T22:35:58.917Z,103917.41
2023-04-18T22:38:26.961Z,103913.94
2023-04-18T22:40:56.202Z,103912.19
2023-04-18T22:43:24.927Z,103906.09
2023-04-18T22:45:53.007Z,103910.41
2023-04-18T22:48:21.027Z,103909.50
2023-04-18T22:50:49.967Z,103903.44
2023-04-18T22:53:18.275Z,103906.00
2023-04-18T22:55:46.396Z,103904.28
2023-04-18T22:58:15.799Z,103908.59
2023-04-18T23:00:43.757Z,103904.25
2023-04-18T23:03:11.838Z,103906.88
2023-04-18T23:05:39.942Z,103907.72
2023-04-18T23:08:07.959Z,103912.00
2023-04-18T23:10:36.097Z,103899.94
2023-04-18T23:13:04.051Z,103910.28
2023-04-18T23:15:33.465Z,103909.38
2023-04-18T23:18:01.483Z,103899.84
2023-04-18T23:20:29.603Z,103901.56
2023-04-18T23:22:57.557Z,103903.34
2023-04-18T23:25:25.479Z,103899.84
2023-04-18T23:27:53.409Z,103899.78
2023-04-18T23:30:21.248Z,103894.56
2023-04-18T23:32:50.726Z,103896.28
2023-04-18T23:35:18.935Z,103897.13
2023-04-18T23:37:46.879Z,103896.22
2023-04-18T23:40:14.754Z,103892.81
2023-04-18T23:42:42.762Z,103892.81
2023-04-18T23:45:11.362Z,103889.28
2023-04-18T23:47:39.282Z,103887.59
2023-04-18T23:50:10.038Z,103888.44
2023-04-18T23:52:38.540Z,103884.06
2023-04-18T23:55:07.310Z,103889.28
2023-04-18T23:57:35.265Z,103893.56
